createdAt,value
2019-03-29T00:00:26.704Z,85.00
2019-03-29T00:02:58.013Z,85.20
2019-03-29T00:05:29.267Z,85.30
2019-03-29T00:08:00.417Z,85.60
2019-03-29T00:10:31.754Z,85.60
2019-03-29T00:13:02.960Z,86.00
2019-03-29T00:15:35.212Z,85.70
2019-03-29T00:18:14.576Z,85.60
2019-03-29T00:20:47.155Z,85.60
2019-03-29T00:23:18.399Z,86.00
2019-03-29T00:25:51.491Z,87.10
2019-03-29T00:28:22.623Z,87.20
2019-03-29T00:30:53.810Z,88.20
2019-03-29T00:33:25.024Z,88.40
2019-03-29T00:35:56.436Z,89.40
2019-03-29T00:38:27.614Z,90.10
2019-03-29T00:40:59.004Z,90.30
2019-03-29T00:43:30.406Z,90.60
2019-03-29T00:46:03.540Z,91.00
2019-03-29T00:48:35.739Z,91.30
2019-03-29T00:51:07.386Z,91.90
2019-03-29T00:53:38.512Z,92.00
2019-03-29T00:56:09.997Z,92.10
2019-03-29T00:58:41.199Z,92.10
2019-03-29T01:01:12.620Z,92.20
2019-03-29T01:03:43.754Z,92.10
2019-03-29T01:06:15.048Z,92.10
2019-03-29T01:08:48.444Z,91.40
2019-03-29T01:11:19.690Z,90.90
2019-03-29T01:13:51.682Z,91.30
2019-03-29T01:16:22.945Z,91.00
2019-03-29T01:18:55.440Z,90.90
2019-03-29T01:21:26.634Z,90.60
2019-03-29T01:23:57.870Z,90.50
2019-03-29T01:26:29.106Z,89.40
2019-03-29T01:29:00.316Z,89.10
2019-03-29T01:31:31.622Z,88.70
2019-03-29T01:34:03.189Z,88.30
2019-03-29T01:36:34.368Z,86.70
2019-03-29T01:39:06.966Z,86.50
2019-03-29T01:41:46.439Z,85.90
2019-03-29T01:44:17.969Z,86.00
2019-03-29T01:46:49.174Z,85.90
2019-03-29T01:49:20.499Z,84.00
2019-03-29T01:51:55.364Z,83.90
2019-03-29T01:54:26.594Z,84.00
2019-03-29T01:56:57.792Z,83.30
2019-03-29T01:59:29.060Z,82.70
2019-03-29T02:02:01.090Z,82.20
2019-03-29T02:04:34.297Z,82.70
2019-03-29T02:07:06.218Z,82.20
2019-03-29T02:09:38.226Z,81.50
2019-03-29T02:12:09.504Z,80.70
2019-03-29T02:14:40.702Z,80.90
2019-03-29T02:17:12.429Z,81.00
2019-03-29T02:19:43.639Z,81.80
2019-03-29T02:22:14.863Z,82.20
2019-03-29T02:24:46.152Z,82.30
2019-03-29T02:27:17.325Z,82.60
2019-03-29T02:29:48.559Z,82.90
2019-03-29T02:32:20.284Z,83.10
2019-03-29T02:34:51.955Z,82.90
2019-03-29T02:37:23.234Z,83.00
2019-03-29T02:39:55.192Z,82.90
2019-03-29T02:42:26.648Z,81.60
2019-03-29T02:44:57.792Z,78.00
2019-03-29T02:47:29.566Z,75.00
2019-03-29T02:50:00.764Z,74.40
2019-03-29T02:52:32.059Z,76.40
2019-03-29T02:55:03.197Z,78.10
2019-03-29T02:57:34.622Z,79.70
2019-03-29T03:00:08.044Z,77.80
2019-03-29T03:02:39.368Z,73.80
2019-03-29T03:05:11.398Z,73.10
2019-03-29T03:07:42.752Z,72.30
2019-03-29T03:10:14.248Z,74.90
2019-03-29T03:12:45.516Z,73.10
2019-03-29T03:15:18.191Z,72.20
2019-03-29T03:17:50.422Z,71.80
2019-03-29T03:20:22.499Z,72.80
2019-03-29T03:22:53.709Z,73.20
2019-03-29T03:25:24.897Z,73.60
2019-03-29T03:27:57.237Z,74.00
2019-03-29T03:30:28.503Z,74.70
2019-03-29T03:32:59.771Z,74.90
2019-03-29T03:35:30.913Z,76.00
2019-03-29T03:38:02.151Z,76.20
2019-03-29T03:40:33.391Z,76.00
2019-03-29T03:43:04.653Z,76.20
2019-03-29T03:45:35.786Z,76.20
2019-03-29T03:48:06.967Z,76.10
2019-03-29T03:50:42.835Z,75.20
2019-03-29T03:53:14.434Z,75.70
2019-03-29T03:55:46.700Z,75.10
2019-03-29T03:58:19.698Z,74.50
2019-03-29T04:00:56.481Z,76.10
2019-03-29T04:03:28.205Z,76.30
2019-03-29T04:05:59.582Z,76.70
2019-03-29T04:08:30.848Z,76.70
2019-03-29T04:11:02.019Z,77.00
2019-03-29T04:13:33.360Z,76.70
2019-03-29T04:16:04.839Z,77.40
2019-03-29T04:18:36.171Z,78.40
2019-03-29T04:21:07.654Z,79.70
2019-03-29T04:23:38.935Z,80.10
2019-03-29T04:26:10.064Z,80.80
2019-03-29T04:28:42.357Z,80.60
2019-03-29T04:31:13.538Z,80.30
2019-03-29T04:33:45.051Z,80.20
2019-03-29T04:36:16.395Z,80.10
2019-03-29T04:38:48.052Z,79.70
2019-03-29T04:41:19.302Z,79.50
2019-03-29T04:43:50.591Z,79.50
2019-03-29T04:46:21.785Z,79.80
2019-03-29T04:48:52.932Z,79.80
2019-03-29T04:51:24.201Z,80.00
2019-03-29T04:53:59.561Z,80.10
2019-03-29T04:56:30.845Z,80.60
2019-03-29T04:59:02.028Z,80.70
2019-03-29T05:01:33.166Z,80.80
2019-03-29T05:04:05.423Z,81.10
2019-03-29T05:06:36.654Z,81.50
2019-03-29T05:09:08.657Z,82.20
2019-03-29T05:11:45.179Z,82.50
2019-03-29T05:14:16.493Z,82.70
2019-03-29T05:16:47.811Z,83.10
2019-03-29T05:19:18.958Z,83.60
2019-03-29T05:21:50.221Z,83.70
2019-03-29T05:24:21.627Z,84.00
2019-03-29T05:26:52.914Z,84.60
2019-03-29T05:29:24.144Z,85.00
2019-03-29T05:31:55.345Z,85.50
2019-03-29T05:34:26.780Z,85.90
2019-03-29T05:36:58.572Z,85.80
2019-03-29T05:39:29.913Z,85.60
2019-03-29T05:42:01.656Z,85.00
2019-03-29T05:44:32.874Z,84.90
2019-03-29T05:47:04.113Z,84.90
2019-03-29T05:49:35.541Z,84.50
2019-03-29T05:52:06.881Z,84.20
2019-03-29T05:54:38.128Z,84.10
2019-03-29T05:57:09.319Z,83.80
2019-03-29T05:59:41.486Z,83.30
2019-03-29T06:02:12.686Z,83.90
2019-03-29T06:04:44.121Z,83.40
2019-03-29T06:07:15.289Z,80.10
2019-03-29T06:09:46.625Z,80.00
2019-03-29T06:12:18.087Z,78.40
2019-03-29T06:14:49.368Z,77.60
2019-03-29T06:17:20.564Z,77.60
2019-03-29T06:19:52.762Z,76.70
2019-03-29T06:22:24.086Z,76.50
2019-03-29T06:24:55.512Z,76.40
2019-03-29T06:27:27.035Z,76.20
2019-03-29T06:29:58.463Z,75.50
2019-03-29T06:32:29.629Z,75.90
2019-03-29T06:35:01.077Z,75.70
2019-03-29T06:37:35.546Z,76.20
2019-03-29T06:40:10.131Z,76.80
2019-03-29T06:42:41.512Z,78.00
2019-03-29T06:45:12.955Z,78.30
2019-03-29T06:47:44.167Z,80.30
2019-03-29T06:50:15.493Z,81.00
2019-03-29T06:52:46.700Z,82.40
2019-03-29T06:55:18.033Z,84.00
2019-03-29T06:57:50.495Z,85.10
2019-03-29T07:00:21.895Z,86.40
2019-03-29T07:02:53.289Z,87.10
2019-03-29T07:05:24.739Z,87.50
2019-03-29T07:07:56.189Z,87.20
2019-03-29T07:10:27.573Z,85.20
2019-03-29T07:12:59.474Z,83.50
2019-03-29T07:15:30.919Z,82.70
2019-03-29T07:18:04.234Z,82.30
2019-03-29T07:20:35.718Z,79.90
2019-03-29T07:23:06.972Z,77.20
2019-03-29T07:25:38.223Z,74.40
2019-03-29T07:28:09.771Z,71.30
2019-03-29T07:30:41.079Z,69.60
2019-03-29T07:33:12.338Z,70.00
2019-03-29T07:35:43.679Z,70.20
2019-03-29T07:38:15.312Z,68.60
2019-03-29T07:40:46.822Z,68.10
2019-03-29T07:43:18.030Z,67.70
2019-03-29T07:45:49.634Z,65.90
2019-03-29T07:48:21.247Z,66.80
2019-03-29T07:50:53.731Z,66.10
2019-03-29T07:53:26.104Z,66.30
2019-03-29T07:56:00.721Z,65.90
2019-03-29T07:58:31.948Z,65.60
2019-03-29T08:01:04.121Z,67.30
2019-03-29T08:03:36.506Z,67.60
2019-03-29T08:06:07.807Z,68.40
2019-03-29T08:08:39.018Z,68.00
2019-03-29T08:11:10.365Z,66.70
2019-03-29T08:13:41.580Z,66.50
2019-03-29T08:16:12.930Z,66.70
2019-03-29T08:18:44.106Z,66.60
2019-03-29T08:21:16.061Z,66.40
2019-03-29T08:23:47.450Z,67.10
2019-03-29T08:26:18.726Z,67.90
2019-03-29T08:28:49.903Z,68.70
2019-03-29T08:31:21.124Z,69.70
2019-03-29T08:33:54.216Z,73.80
2019-03-29T08:36:25.731Z,75.80
2019-03-29T08:38:56.967Z,76.60
2019-03-29T08:41:28.354Z,77.90
2019-03-29T08:43:59.826Z,81.20
2019-03-29T08:46:31.131Z,81.60
2019-03-29T08:49:02.378Z,83.40
2019-03-29T08:51:33.785Z,84.30
2019-03-29T08:54:05.142Z,85.00
2019-03-29T08:56:36.879Z,86.40
2019-03-29T08:59:08.188Z,86.50
2019-03-29T09:01:39.482Z,86.70
2019-03-29T09:04:10.818Z,87.60
2019-03-29T09:06:53.129Z,87.00
2019-03-29T09:09:15.940Z,87.50
2019-03-29T09:11:47.131Z,88.10
2019-03-29T09:14:18.584Z,87.90
2019-03-29T09:16:49.960Z,88.00
2019-03-29T09:19:21.228Z,87.50
2019-03-29T09:21:53.672Z,87.10
2019-03-29T09:24:28.586Z,87.50
2019-03-29T09:27:00.394Z,87.70
2019-03-29T09:29:31.700Z,86.00
2019-03-29T09:32:03.021Z,84.50
2019-03-29T09:34:35.523Z,83.80
2019-03-29T09:37:07.410Z,86.10
2019-03-29T09:39:38.671Z,87.50
2019-03-29T09:42:10.147Z,86.30
2019-03-29T09:44:41.460Z,87.80
2019-03-29T09:47:13.116Z,89.50
2019-03-29T09:49:44.283Z,90.20
2019-03-29T09:52:15.628Z,88.90
2019-03-29T09:54:47.285Z,89.50
2019-03-29T09:57:36.849Z,90.30
2019-03-29T09:59:57.550Z,90.20
2019-03-29T10:02:28.981Z,91.40
2019-03-29T10:05:01.228Z,89.30
2019-03-29T10:07:32.631Z,87.50
2019-03-29T10:10:03.904Z,91.50
2019-03-29T10:12:43.489Z,92.20
2019-03-29T10:15:11.272Z,87.90
2019-03-29T10:17:42.706Z,90.70
2019-03-29T10:20:14.064Z,90.80
2019-03-29T10:22:45.404Z,89.20
2019-03-29T10:25:19.736Z,91.70
2019-03-29T10:27:52.495Z,91.80
2019-03-29T10:30:38.712Z,90.70
2019-03-29T10:33:10.030Z,90.00
2019-03-29T10:35:51.610Z,90.60
2019-03-29T10:38:17.967Z,91.50
2019-03-29T10:40:47.581Z,90.40
2019-03-29T10:43:18.924Z,91.30
2019-03-29T10:45:50.079Z,91.20
2019-03-29T10:48:22.038Z,91.80
2019-03-29T10:50:54.024Z,92.20
2019-03-29T10:53:28.566Z,92.10
2019-03-29T10:55:58.340Z,92.60
2019-03-29T10:58:29.849Z,93.00
2019-03-29T11:01:01.336Z,94.40
2019-03-29T11:03:32.542Z,93.90
2019-03-29T11:06:03.963Z,93.40
2019-03-29T11:08:35.172Z,94.70
2019-03-29T11:11:09.043Z,94.70
2019-03-29T11:13:41.210Z,95.50
2019-03-29T11:16:13.574Z,96.50
2019-03-29T11:18:45.923Z,97.40
2019-03-29T11:21:17.304Z,95.10
2019-03-29T11:23:48.629Z,95.50
2019-03-29T11:26:20.236Z,96.40
2019-03-29T11:28:51.539Z,91.70
2019-03-29T11:31:25.469Z,89.90
2019-03-29T11:33:55.983Z,85.50
2019-03-29T11:36:27.363Z,90.40
2019-03-29T11:38:58.720Z,88.70
2019-03-29T11:41:29.954Z,88.20
2019-03-29T11:44:02.246Z,89.60
2019-03-29T11:46:33.679Z,89.40
2019-03-29T11:49:06.471Z,81.60
2019-03-29T11:51:37.699Z,78.60
2019-03-29T11:54:09.292Z,67.20
2019-03-29T11:56:40.495Z,68.20
2019-03-29T11:59:12.109Z,66.40
2019-03-29T12:01:43.319Z,59.80
2019-03-29T12:04:14.903Z,61.70
2019-03-29T12:06:46.315Z,56.50
2019-03-29T12:09:17.578Z,55.60
2019-03-29T12:11:48.901Z,58.10
2019-03-29T12:14:22.546Z,55.80
2019-03-29T12:16:54.264Z,54.00
2019-03-29T12:19:25.682Z,53.30
2019-03-29T12:21:56.980Z,55.40
2019-03-29T12:24:28.390Z,53.40
2019-03-29T12:26:59.737Z,51.70
2019-03-29T12:29:31.250Z,53.10
2019-03-29T12:32:03.641Z,52.40
2019-03-29T12:34:36.816Z,51.90
2019-03-29T12:37:08.576Z,51.40
2019-03-29T12:39:39.944Z,53.10
2019-03-29T12:42:12.733Z,51.70
2019-03-29T12:44:44.007Z,52.80
2019-03-29T12:47:15.342Z,50.50
2019-03-29T12:49:46.812Z,51.40
2019-03-29T12:52:18.014Z,52.70
2019-03-29T12:54:49.275Z,54.90
2019-03-29T12:57:20.677Z,51.30
2019-03-29T12:59:52.100Z,53.30
2019-03-29T13:02:23.643Z,51.90
2019-03-29T13:04:55.026Z,51.80
2019-03-29T13:07:26.191Z,53.60
2019-03-29T13:09:57.503Z,52.50
2019-03-29T13:12:28.895Z,50.50
2019-03-29T13:15:00.359Z,53.10
2019-03-29T13:17:38.273Z,52.40
2019-03-29T13:20:09.764Z,54.20
2019-03-29T13:22:41.060Z,55.90
2019-03-29T13:25:12.839Z,56.80
2019-03-29T13:27:44.050Z,58.90
2019-03-29T13:30:17.339Z,61.00
2019-03-29T13:32:49.771Z,61.40
2019-03-29T13:35:20.950Z,59.60
2019-03-29T13:37:52.210Z,60.90
2019-03-29T13:40:23.811Z,60.80
2019-03-29T13:42:55.148Z,63.20
2019-03-29T13:45:28.027Z,64.60
2019-03-29T13:47:59.559Z,64.80
2019-03-29T13:50:30.992Z,62.00
2019-03-29T13:53:02.393Z,63.60
2019-03-29T13:55:33.563Z,62.50
2019-03-29T13:58:04.908Z,59.30
2019-03-29T14:00:40.225Z,60.20
2019-03-29T14:03:11.537Z,62.30
2019-03-29T14:05:42.885Z,66.10
2019-03-29T14:08:14.233Z,68.90
2019-03-29T14:10:45.427Z,64.60
2019-03-29T14:13:19.524Z,72.50
2019-03-29T14:15:49.759Z,72.30
2019-03-29T14:18:21.302Z,73.80
2019-03-29T14:20:52.955Z,76.20
2019-03-29T14:23:24.315Z,75.30
2019-03-29T14:25:55.749Z,78.10
2019-03-29T14:28:27.160Z,81.10
2019-03-29T14:30:58.785Z,82.90
2019-03-29T14:33:30.240Z,81.40
2019-03-29T14:36:01.589Z,82.60
2019-03-29T14:38:32.879Z,84.40
2019-03-29T14:41:08.897Z,84.20
2019-03-29T14:43:42.264Z,86.30
2019-03-29T14:46:13.622Z,85.30
2019-03-29T14:48:45.256Z,85.50
2019-03-29T14:51:16.592Z,84.90
2019-03-29T14:53:48.119Z,86.70
2019-03-29T14:56:19.495Z,85.50
2019-03-29T14:58:50.812Z,87.00
2019-03-29T15:01:22.277Z,87.20
2019-03-29T15:03:53.672Z,87.10
2019-03-29T15:06:25.479Z,90.20
2019-03-29T15:08:56.814Z,90.00
2019-03-29T15:11:28.122Z,88.10
2019-03-29T15:13:59.486Z,89.10
2019-03-29T15:16:30.686Z,89.50
2019-03-29T15:19:02.096Z,89.10
2019-03-29T15:21:33.341Z,91.30
2019-03-29T15:24:04.560Z,92.70
2019-03-29T15:26:36.112Z,94.50
2019-03-29T15:29:07.414Z,94.80
2019-03-29T15:31:38.721Z,94.00
2019-03-29T15:35:08.360Z,93.00
2019-03-29T15:37:39.893Z,90.90
2019-03-29T15:40:12.623Z,91.50
2019-03-29T15:42:44.236Z,93.60
2019-03-29T15:45:20.563Z,93.40
2019-03-29T15:47:50.081Z,91.50
2019-03-29T15:50:23.299Z,90.40
2019-03-29T15:52:55.271Z,88.70
2019-03-29T15:55:26.652Z,89.50
2019-03-29T15:57:58.214Z,91.00
2019-03-29T16:00:29.523Z,91.40
2019-03-29T16:03:01.136Z,90.90
2019-03-29T16:05:32.342Z,91.20
2019-03-29T16:08:03.632Z,91.70
2019-03-29T16:10:35.248Z,91.60
2019-03-29T16:13:06.773Z,91.40
2019-03-29T16:15:38.472Z,92.80
2019-03-29T16:18:10.021Z,93.80
2019-03-29T16:20:41.256Z,94.80
2019-03-29T16:23:12.645Z,94.70
2019-03-29T16:25:44.034Z,94.60
2019-03-29T16:28:15.298Z,93.70
2019-03-29T16:30:46.687Z,93.40
2019-03-29T16:33:17.978Z,92.80
2019-03-29T16:35:49.239Z,93.50
2019-03-29T16:38:20.549Z,93.40
2019-03-29T16:40:51.854Z,92.20
2019-03-29T16:43:23.193Z,92.20
2019-03-29T16:45:55.282Z,92.40
2019-03-29T16:48:33.981Z,92.30
2019-03-29T16:51:05.429Z,92.90
2019-03-29T16:53:39.791Z,93.10
2019-03-29T16:56:12.197Z,92.70
2019-03-29T16:58:44.027Z,92.40
2019-03-29T17:01:15.379Z,92.60
2019-03-29T17:03:50.437Z,92.90
2019-03-29T17:06:21.775Z,92.60
2019-03-29T17:08:53.322Z,92.50
2019-03-29T17:11:24.511Z,92.90
2019-03-29T17:13:57.010Z,94.00
2019-03-29T17:16:30.674Z,93.30
2019-03-29T17:19:03.382Z,93.30
2019-03-29T17:21:34.817Z,94.10
2019-03-29T17:24:06.824Z,94.20
2019-03-29T17:26:38.263Z,94.00
2019-03-29T17:29:10.128Z,93.00
2019-03-29T17:31:41.479Z,92.40
2019-03-29T17:34:12.916Z,93.20
2019-03-29T17:36:44.236Z,93.30
2019-03-29T17:39:15.666Z,93.40
2019-03-29T17:41:47.181Z,94.40
2019-03-29T17:44:18.637Z,94.70
2019-03-29T17:46:49.944Z,95.60
2019-03-29T17:49:21.490Z,96.00
2019-03-29T17:51:53.921Z,96.40
2019-03-29T17:54:25.402Z,96.50
2019-03-29T17:56:56.748Z,96.80
2019-03-29T17:59:28.511Z,96.70
2019-03-29T18:02:09.276Z,96.70
2019-03-29T18:04:32.838Z,96.40
2019-03-29T18:07:04.219Z,95.00
2019-03-29T18:09:35.921Z,95.10
2019-03-29T18:12:07.500Z,94.90
2019-03-29T18:14:40.324Z,94.80
2019-03-29T18:17:11.492Z,95.00
2019-03-29T18:19:43.213Z,92.90
2019-03-29T18:22:14.563Z,92.70
2019-03-29T18:24:45.818Z,92.20
2019-03-29T18:27:17.425Z,92.30
2019-03-29T18:29:48.777Z,92.60
2019-03-29T18:32:21.178Z,92.10
2019-03-29T18:34:53.452Z,92.40
2019-03-29T18:37:24.978Z,92.30
2019-03-29T18:39:57.174Z,92.70
2019-03-29T18:42:28.656Z,92.60
2019-03-29T18:45:00.023Z,92.90
2019-03-29T18:47:31.426Z,93.40
2019-03-29T18:50:02.804Z,93.30
2019-03-29T18:52:34.355Z,93.50
2019-03-29T18:55:06.376Z,94.00
2019-03-29T18:57:37.848Z,94.50
2019-03-29T19:00:10.067Z,94.10
2019-03-29T19:02:42.148Z,93.90
2019-03-29T19:05:24.172Z,95.10
2019-03-29T19:07:56.224Z,95.50
2019-03-29T19:10:27.589Z,95.80
2019-03-29T19:12:59.346Z,95.30
2019-03-29T19:15:36.866Z,94.90
2019-03-29T19:18:08.628Z,96.10
2019-03-29T19:20:40.099Z,96.20
2019-03-29T19:23:12.060Z,96.30
2019-03-29T19:25:43.522Z,96.60
2019-03-29T19:28:15.389Z,96.60
2019-03-29T19:30:47.522Z,97.00
2019-03-29T19:33:20.202Z,97.00
2019-03-29T19:35:51.631Z,96.80
2019-03-29T19:38:22.848Z,96.80
2019-03-29T19:40:54.303Z,96.90
2019-03-29T19:43:26.640Z,97.10
2019-03-29T19:45:57.803Z,97.20
2019-03-29T19:48:29.137Z,97.00
2019-03-29T19:51:00.405Z,97.20
2019-03-29T19:53:34.329Z,97.10
2019-03-29T19:56:04.889Z,97.20
2019-03-29T19:58:36.363Z,97.20
2019-03-29T20:01:07.656Z,97.50
2019-03-29T20:03:39.137Z,97.80
2019-03-29T20:06:14.374Z,97.60
2019-03-29T20:08:45.676Z,97.80
2019-03-29T20:11:16.983Z,98.00
2019-03-29T20:13:50.398Z,98.30
2019-03-29T20:16:22.006Z,98.60
2019-03-29T20:18:54.001Z,98.70
2019-03-29T20:21:34.656Z,98.40
2019-03-29T20:24:06.232Z,98.70
2019-03-29T20:26:37.951Z,98.90
2019-03-29T20:29:09.132Z,99.20
2019-03-29T20:31:40.637Z,99.50
2019-03-29T20:34:11.943Z,99.60
2019-03-29T20:36:43.177Z,99.20
2019-03-29T20:39:14.563Z,99.50
2019-03-29T20:41:46.217Z,99.60
2019-03-29T20:44:17.675Z,99.80
2019-03-29T20:46:48.995Z,99.90
2019-03-29T20:49:20.324Z,99.90
2019-03-29T20:51:51.746Z,99.90
2019-03-29T20:54:22.951Z,99.90
2019-03-29T20:56:54.507Z,99.90
2019-03-29T20:59:25.755Z,99.90
2019-03-29T21:01:57.204Z,99.90
2019-03-29T21:04:29.474Z,99.90
2019-03-29T21:07:01.200Z,99.90
2019-03-29T21:09:32.567Z,99.90
2019-03-29T21:12:03.820Z,99.90
2019-03-29T21:14:35.157Z,99.90
2019-03-29T21:17:06.395Z,99.90
2019-03-29T21:19:38.682Z,99.90
2019-03-29T21:22:10.055Z,99.90
2019-03-29T21:24:41.448Z,99.90
2019-03-29T21:27:12.834Z,99.90
2019-03-29T21:29:44.220Z,99.90
2019-03-29T21:32:15.766Z,99.90
2019-03-29T21:34:47.248Z,99.90
2019-03-29T21:37:19.199Z,99.90
2019-03-29T21:39:50.663Z,99.90
2019-03-29T21:42:22.166Z,99.90
2019-03-29T21:44:53.703Z,99.90
2019-03-29T21:47:25.115Z,99.90
2019-03-29T21:49:56.604Z,99.90
2019-03-29T21:52:28.081Z,99.90
2019-03-29T21:54:59.773Z,99.90
2019-03-29T21:57:31.678Z,99.90
2019-03-29T22:00:02.833Z,99.90
2019-03-29T22:02:34.510Z,99.90
2019-03-29T22:05:06.380Z,99.90
2019-03-29T22:07:44.520Z,99.90
2019-03-29T22:10:15.871Z,99.90
2019-03-29T22:12:47.257Z,99.90
2019-03-29T22:15:18.641Z,99.90
2019-03-29T22:17:49.966Z,99.90
2019-03-29T22:20:21.255Z,99.90
2019-03-29T22:22:52.690Z,99.80
2019-03-29T22:25:23.968Z,99.50
2019-03-29T22:27:55.396Z,99.50
2019-03-29T22:30:26.606Z,99.50
2019-03-29T22:32:57.913Z,99.40
2019-03-29T22:35:29.216Z,99.70
2019-03-29T22:38:00.465Z,99.70
2019-03-29T22:40:33.887Z,99.70
2019-03-29T22:43:07.421Z,99.90
2019-03-29T22:45:38.021Z,99.90
2019-03-29T22:48:09.243Z,99.90
2019-03-29T22:50:41.306Z,99.70
2019-03-29T22:53:12.620Z,99.80
2019-03-29T22:55:43.901Z,99.90
2019-03-29T22:58:15.175Z,99.90
2019-03-29T23:00:51.406Z,99.90
2019-03-29T23:03:23.171Z,99.90
2019-03-29T23:05:54.529Z,99.90
2019-03-29T23:08:29.023Z,99.90
2019-03-29T23:11:01.342Z,99.90
2019-03-29T23:13:34.429Z,99.90
2019-03-29T23:16:05.650Z,99.90
2019-03-29T23:18:36.927Z,99.90
2019-03-29T23:21:08.146Z,99.90
2019-03-29T23:23:39.651Z,99.90
2019-03-29T23:26:10.956Z,99.90
2019-03-29T23:28:42.251Z,99.90
2019-03-29T23:31:13.858Z,99.90
2019-03-29T23:33:45.226Z,99.90
2019-03-29T23:36:16.594Z,99.90
2019-03-29T23:38:47.911Z,99.90
2019-03-29T23:41:19.300Z,99.90
2019-03-29T23:43:50.866Z,99.90
2019-03-29T23:46:22.231Z,99.90
2019-03-29T23:48:53.660Z,99.90
2019-03-29T23:51:26.301Z,99.90
2019-03-29T23:53:58.492Z,99.90
2019-03-29T23:56:29.788Z,99.90
2019-03-29T23:59:01.148Z,99.90
